createdAt,value
2023-04-12T00:04:16.180Z,10.90
2023-04-12T00:09:18.037Z,10.90
2023-04-12T00:14:19.817Z,10.80
2023-04-12T00:19:21.860Z,10.70
2023-04-12T00:24:23.635Z,10.70
2023-04-12T00:29:26.686Z,10.60
2023-04-12T00:34:28.800Z,10.60
2023-04-12T00:39:30.640Z,10.60
2023-04-12T00:44:35.532Z,10.40
2023-04-12T00:49:37.360Z,10.40
2023-04-12T00:54:40.217Z,10.30
2023-04-12T00:59:42.288Z,10.20
2023-04-12T01:04:45.823Z,10.10
2023-04-12T01:10:05.316Z,9.90
2023-04-12T01:15:12.222Z,9.70
2023-04-12T01:20:21.890Z,9.60
2023-04-12T01:25:44.859Z,9.40
2023-04-12T01:30:50.198Z,9.30
2023-04-12T01:35:53.543Z,9.20
2023-04-12T01:40:56.217Z,9.10
2023-04-12T01:45:58.058Z,8.90
2023-04-12T01:51:45.512Z,8.70
2023-04-12T01:56:53.438Z,8.60
2023-04-12T02:01:55.632Z,8.70
2023-04-12T02:06:57.780Z,8.60
2023-04-12T02:11:59.510Z,8.70
2023-04-12T02:17:04.377Z,8.70
2023-04-12T02:22:08.106Z,8.60
2023-04-12T02:27:09.924Z,8.50
2023-04-12T02:32:11.655Z,8.70
2023-04-12T02:37:14.690Z,8.70
2023-04-12T02:42:16.646Z,8.40
2023-04-12T02:47:18.506Z,8.30
2023-04-12T02:52:20.309Z,8.20
2023-04-12T02:57:23.479Z,8.20
2023-04-12T03:02:26.153Z,8.10
2023-04-12T03:07:28.082Z,8.10
2023-04-12T03:12:29.992Z,8.10
2023-04-12T03:17:31.919Z,8.10
2023-04-12T03:22:33.936Z,8.00
2023-04-12T03:27:35.799Z,8.10
2023-04-12T03:32:42.238Z,8.10
2023-04-12T03:37:44.242Z,8.10
2023-04-12T03:42:45.998Z,8.10
2023-04-12T03:47:48.090Z,8.20
2023-04-12T03:52:50.156Z,8.20
2023-04-12T03:57:51.928Z,8.30
2023-04-12T04:02:53.942Z,8.30
2023-04-12T04:07:56.854Z,8.40
2023-04-12T04:12:58.697Z,8.50
2023-04-12T04:18:00.585Z,8.60
2023-04-12T04:23:02.446Z,8.90
2023-04-12T04:28:04.474Z,9.10
2023-04-12T04:33:07.293Z,9.20
2023-04-12T04:38:09.252Z,9.20
2023-04-12T04:43:13.927Z,9.30
2023-04-12T04:48:16.461Z,9.30
2023-04-12T04:53:20.076Z,9.30
2023-04-12T04:58:21.851Z,9.60
2023-04-12T05:03:23.766Z,10.00
2023-04-12T05:08:25.604Z,10.40
2023-04-12T05:13:27.360Z,10.20
2023-04-12T05:18:29.061Z,10.40
2023-04-12T05:23:35.323Z,10.60
2023-04-12T05:28:37.325Z,10.50
2023-04-12T05:33:39.306Z,10.60
2023-04-12T05:38:41.040Z,10.70
2023-04-12T05:43:42.808Z,10.90
2023-04-12T05:48:44.652Z,11.40
2023-04-12T05:53:46.523Z,11.40
2023-04-12T05:58:49.393Z,12.00
2023-04-12T06:03:51.885Z,12.70
2023-04-12T06:08:53.640Z,13.10
2023-04-12T06:13:55.625Z,13.00
2023-04-12T06:18:58.390Z,13.30
2023-04-12T06:24:00.603Z,13.20
2023-04-12T06:29:02.282Z,14.00
2023-04-12T06:34:04.163Z,13.60
2023-04-12T06:39:06.902Z,14.60
2023-04-12T06:44:09.302Z,13.90
2023-04-12T06:49:11.279Z,14.70
2023-04-12T06:54:13.744Z,17.60
2023-04-12T06:59:15.517Z,16.50
2023-04-12T07:04:17.372Z,15.40
2023-04-12T07:09:19.564Z,16.40
2023-04-12T07:14:21.242Z,15.80
2023-04-12T07:19:23.132Z,16.50
2023-04-12T07:24:25.017Z,17.70
2023-04-12T07:29:26.792Z,17.80
2023-04-12T07:34:28.609Z,21.70
2023-04-12T07:39:31.820Z,20.80
2023-04-12T07:44:35.695Z,20.60
2023-04-12T07:49:38.245Z,22.30
2023-04-12T07:54:40.058Z,23.40
2023-04-12T07:59:41.776Z,22.30
2023-04-12T08:04:45.772Z,20.60
2023-04-12T08:09:47.729Z,22.20
2023-04-12T08:14:49.606Z,22.50
2023-04-12T08:19:51.674Z,20.50
2023-04-12T08:24:53.564Z,20.90
2023-04-12T08:29:55.360Z,21.40
2023-04-12T08:34:57.320Z,21.40
2023-04-12T08:40:06.812Z,23.10
2023-04-12T08:45:10.572Z,21.50
2023-04-12T08:50:17.269Z,20.60
2023-04-12T08:55:19.035Z,21.60
2023-04-12T09:00:21.996Z,20.30
2023-04-12T09:05:30.219Z,20.40
2023-04-12T09:10:37.907Z,20.20
2023-04-12T09:15:49.689Z,20.30
2023-04-12T09:21:05.613Z,20.20
2023-04-12T09:26:08.268Z,23.20
2023-04-12T09:31:16.199Z,23.30
2023-04-12T09:36:19.188Z,24.50
2023-04-12T09:41:27.542Z,24.60
2023-04-12T09:46:29.490Z,22.90
2023-04-12T09:51:33.836Z,21.80
2023-04-12T09:56:37.869Z,22.20
2023-04-12T10:01:41.199Z,22.70
2023-04-12T10:06:44.047Z,21.50
2023-04-12T10:11:47.575Z,22.60
2023-04-12T10:16:49.373Z,21.70
2023-04-12T10:21:51.208Z,20.10
2023-04-12T10:26:55.885Z,19.80
2023-04-12T10:31:59.640Z,19.30
2023-04-12T10:37:02.155Z,18.60
2023-04-12T10:42:16.615Z,18.80
2023-04-12T10:47:49.999Z,18.70
2023-04-12T10:53:13.608Z,18.60
2023-04-12T10:58:49.933Z,18.60
2023-04-12T11:04:20.568Z,18.40
2023-04-12T11:09:25.361Z,18.60
2023-04-12T11:14:34.673Z,18.60
2023-04-12T11:19:50.661Z,18.40
2023-04-12T11:24:54.454Z,18.50
2023-04-12T11:30:01.392Z,19.10
2023-04-12T11:35:03.338Z,19.20
2023-04-12T11:40:06.014Z,18.40
2023-04-12T11:45:15.825Z,18.50
2023-04-12T11:50:40.204Z,18.90
2023-04-12T11:55:47.447Z,18.40
2023-04-12T12:00:49.332Z,19.10
2023-04-12T12:05:51.974Z,18.30
2023-04-12T12:11:07.244Z,17.80
2023-04-12T12:16:10.817Z,17.60
2023-04-12T12:21:14.783Z,17.20
2023-04-12T12:26:30.852Z,17.20
2023-04-12T12:31:33.683Z,17.50
2023-04-12T12:36:39.063Z,18.00
2023-04-12T12:41:41.466Z,18.30
2023-04-12T12:51:48.000Z,18.90
2023-04-12T12:56:49.756Z,18.40
2023-04-12T13:01:51.709Z,18.30
2023-04-12T13:06:53.573Z,18.30
2023-04-12T13:11:57.280Z,18.10
2023-04-12T13:16:59.253Z,18.20
2023-04-12T13:22:01.082Z,18.50
2023-04-12T13:27:03.073Z,18.30
2023-04-12T13:32:05.226Z,18.10
2023-04-12T13:37:07.664Z,18.10
2023-04-12T13:42:09.788Z,18.20
2023-04-12T13:47:11.718Z,18.10
2023-04-12T13:52:14.145Z,18.40
2023-04-12T13:57:16.447Z,18.20
2023-04-12T14:02:18.317Z,18.00
2023-04-12T14:07:22.046Z,18.00
2023-04-12T14:12:24.108Z,17.90
2023-04-12T14:17:26.244Z,18.00
2023-04-12T14:22:28.180Z,18.10
2023-04-12T14:27:30.772Z,17.90
2023-04-12T14:32:32.647Z,18.10
2023-04-12T14:37:34.779Z,18.60
2023-04-12T14:42:37.556Z,18.40
2023-04-12T14:47:40.640Z,18.10
2023-04-12T14:52:42.599Z,18.00
2023-04-12T14:57:44.552Z,17.80
2023-04-12T15:02:47.994Z,17.60
2023-04-12T15:07:50.333Z,17.50
2023-04-12T15:12:52.475Z,17.60
2023-04-12T15:17:54.312Z,17.50
2023-04-12T15:22:56.167Z,17.50
2023-04-12T15:27:57.935Z,17.40
2023-04-12T15:32:59.791Z,17.40
2023-04-12T15:38:01.829Z,17.30
2023-04-12T15:43:03.833Z,17.40
2023-04-12T15:48:05.727Z,17.40
2023-04-12T15:53:07.500Z,17.40
2023-04-12T15:58:09.818Z,17.30
2023-04-12T16:03:12.945Z,17.30
2023-04-12T16:08:14.897Z,17.10
2023-04-12T16:13:16.874Z,17.00
2023-04-12T16:18:18.698Z,16.90
2023-04-12T16:23:20.961Z,16.90
2023-04-12T16:28:22.746Z,16.90
2023-04-12T16:33:25.022Z,16.80
2023-04-12T16:38:26.857Z,16.60
2023-04-12T16:43:28.608Z,16.50
2023-04-12T16:48:30.992Z,16.40
2023-04-12T16:53:32.850Z,16.30
2023-04-12T16:58:34.691Z,16.20
2023-04-12T17:03:36.603Z,16.10
2023-04-12T17:08:38.659Z,16.00
2023-04-12T17:13:40.749Z,15.80
2023-04-12T17:18:43.603Z,15.60
2023-04-12T17:23:45.622Z,15.50
2023-04-12T17:28:47.583Z,15.20
2023-04-12T17:33:49.352Z,15.00
2023-04-12T17:38:51.388Z,15.00
2023-04-12T17:43:53.578Z,14.80
2023-04-12T17:48:55.524Z,14.70
2023-04-12T17:53:58.456Z,14.70
2023-04-12T17:59:02.101Z,14.40
2023-04-12T18:04:05.625Z,14.00
2023-04-12T18:09:10.917Z,13.80
2023-04-12T18:14:13.074Z,13.60
2023-04-12T18:19:18.579Z,13.60
2023-04-12T18:24:20.449Z,13.30
2023-04-12T18:29:22.426Z,13.20
2023-04-12T18:34:24.309Z,13.00
2023-04-12T18:39:26.617Z,12.80
2023-04-12T18:44:29.096Z,12.70
2023-04-12T18:49:31.277Z,12.50
2023-04-12T18:54:33.063Z,12.40
2023-04-12T18:59:34.986Z,12.30
2023-04-12T19:04:37.049Z,12.30
2023-04-12T19:09:38.811Z,12.20
2023-04-12T19:14:42.367Z,12.40
2023-04-12T19:19:44.120Z,12.30
2023-04-12T19:24:52.463Z,12.20
2023-04-12T19:29:54.530Z,12.10
2023-04-12T19:34:56.800Z,12.10
2023-04-12T19:39:58.576Z,12.20
2023-04-12T19:45:03.224Z,12.20
2023-04-12T19:50:05.418Z,12.20
2023-04-12T19:55:07.518Z,11.90
2023-04-12T20:00:19.730Z,11.70
2023-04-12T20:05:23.363Z,11.80
2023-04-12T20:10:25.244Z,11.80
2023-04-12T20:15:27.218Z,12.10
2023-04-12T20:20:28.926Z,12.00
2023-04-12T20:25:32.935Z,11.70
2023-04-12T20:30:36.723Z,11.70
2023-04-12T20:35:38.767Z,11.80
2023-04-12T20:40:40.776Z,11.70
2023-04-12T20:45:42.500Z,11.60
2023-04-12T20:50:44.837Z,11.50
2023-04-12T20:55:46.618Z,11.50
2023-04-12T21:00:49.322Z,11.50
2023-04-12T21:05:52.659Z,11.60
2023-04-12T21:10:54.355Z,11.50
2023-04-12T21:15:56.356Z,11.70
2023-04-12T21:21:01.647Z,11.80
2023-04-12T21:26:04.061Z,11.90
2023-04-12T21:31:06.631Z,12.00
2023-04-12T21:36:08.826Z,12.20
2023-04-12T21:41:12.455Z,12.20
2023-04-12T21:46:14.252Z,12.30
2023-04-12T21:51:16.256Z,12.30
2023-04-12T21:56:18.127Z,12.40
2023-04-12T22:01:19.962Z,12.40
2023-04-12T22:06:21.754Z,12.50
2023-04-12T22:11:23.749Z,12.30
2023-04-12T22:16:26.155Z,12.30
2023-04-12T22:21:28.872Z,12.30
2023-04-12T22:26:31.546Z,12.20
2023-04-12T22:31:33.319Z,12.10
2023-04-12T22:36:37.435Z,12.00
2023-04-12T22:41:41.803Z,12.00
2023-04-12T22:46:47.985Z,12.00
2023-04-12T22:51:49.916Z,12.00
2023-04-12T22:56:52.083Z,12.00
2023-04-12T23:01:53.962Z,11.90
2023-04-12T23:06:55.848Z,11.90
2023-04-12T23:11:57.604Z,11.80
2023-04-12T23:16:59.543Z,11.70
2023-04-12T23:22:01.432Z,11.80
2023-04-12T23:27:03.174Z,11.80
2023-04-12T23:32:05.189Z,11.80
2023-04-12T23:37:07.164Z,11.60
2023-04-12T23:42:09.633Z,11.60
2023-04-12T23:47:11.347Z,11.60
2023-04-12T23:52:13.105Z,11.70
2023-04-12T23:57:15.812Z,11.60
